createdAt,value
2023-05-19T00:01:20.692Z,9.90
2023-05-19T00:03:58.970Z,9.90
2023-05-19T00:06:29.202Z,9.90
2023-05-19T00:08:58.979Z,9.80
2023-05-19T00:11:27.198Z,9.70
2023-05-19T00:13:55.245Z,9.70
2023-05-19T00:16:23.804Z,9.70
2023-05-19T00:18:51.684Z,9.60
2023-05-19T00:21:19.061Z,9.60
2023-05-19T00:23:45.907Z,9.60
2023-05-19T00:26:12.803Z,9.60
2023-05-19T00:28:46.454Z,9.60
2023-05-19T00:31:13.378Z,9.50
2023-05-19T00:33:40.519Z,9.40
2023-05-19T00:36:10.843Z,9.40
2023-05-19T00:38:38.586Z,9.40
2023-05-19T00:41:07.328Z,9.30
2023-05-19T00:43:37.238Z,9.30
2023-05-19T00:46:04.092Z,9.40
2023-05-19T00:48:31.180Z,9.30
2023-05-19T00:51:03.989Z,9.30
2023-05-19T00:53:33.434Z,9.20
2023-05-19T00:56:01.196Z,9.20
2023-05-19T00:58:30.419Z,9.20
2023-05-19T01:01:03.069Z,9.10
2023-05-19T01:03:35.522Z,9.10
2023-05-19T01:06:05.843Z,9.10
2023-05-19T01:08:34.509Z,9.00
2023-05-19T01:11:01.690Z,9.10
2023-05-19T01:13:29.309Z,9.10
2023-05-19T01:16:01.479Z,9.10
2023-05-19T01:18:46.374Z,9.00
2023-05-19T01:21:49.616Z,9.00
2023-05-19T01:24:39.285Z,8.90
2023-05-19T01:27:23.732Z,8.90
2023-05-19T01:30:09.074Z,8.90
2023-05-19T01:32:37.175Z,8.90
2023-05-19T01:35:06.063Z,8.80
2023-05-19T01:37:34.250Z,8.80
2023-05-19T01:40:04.335Z,8.80
2023-05-19T01:42:37.259Z,8.80
2023-05-19T01:45:06.816Z,8.70
2023-05-19T01:47:38.394Z,8.70
2023-05-19T01:50:06.202Z,8.70
2023-05-19T01:52:33.725Z,8.60
2023-05-19T01:55:00.732Z,8.60
2023-05-19T01:57:37.711Z,8.60
2023-05-19T02:00:16.305Z,8.50
2023-05-19T02:03:06.067Z,8.60
2023-05-19T02:05:44.345Z,8.50
2023-05-19T02:08:19.332Z,8.50
2023-05-19T02:10:54.022Z,8.50
2023-05-19T02:13:24.451Z,8.40
2023-05-19T02:15:55.064Z,8.40
2023-05-19T02:18:22.388Z,8.30
2023-05-19T02:20:51.215Z,8.30
2023-05-19T02:23:18.127Z,8.30
2023-05-19T02:25:45.084Z,8.30
2023-05-19T02:28:12.030Z,8.30
2023-05-19T02:30:38.936Z,8.30
2023-05-19T02:33:06.642Z,8.30
2023-05-19T02:35:33.913Z,8.20
2023-05-19T02:38:00.716Z,8.20
2023-05-19T02:40:27.813Z,8.20
2023-05-19T02:42:55.117Z,8.20
2023-05-19T02:45:22.885Z,8.10
2023-05-19T02:47:49.712Z,8.10
2023-05-19T02:50:16.595Z,8.10
2023-05-19T02:52:43.493Z,8.10
2023-05-19T02:55:16.862Z,8.10
2023-05-19T02:57:44.023Z,8.10
2023-05-19T03:00:11.913Z,8.00
2023-05-19T03:02:39.839Z,8.00
2023-05-19T03:05:08.479Z,8.00
2023-05-19T03:07:35.383Z,7.90
2023-05-19T03:10:06.631Z,7.90
2023-05-19T03:12:33.796Z,7.80
2023-05-19T03:15:02.278Z,7.80
2023-05-19T03:17:33.802Z,7.80
2023-05-19T03:20:01.737Z,7.70
2023-05-19T03:22:28.641Z,7.70
2023-05-19T03:24:55.972Z,7.70
2023-05-19T03:27:23.085Z,7.70
2023-05-19T03:29:50.074Z,7.70
2023-05-19T03:32:17.099Z,7.60
2023-05-19T03:34:44.325Z,7.70
2023-05-19T03:37:11.194Z,7.60
2023-05-19T03:39:39.806Z,7.70
2023-05-19T03:42:06.865Z,7.70
2023-05-19T03:44:33.727Z,7.60
2023-05-19T03:47:00.838Z,7.60
2023-05-19T03:49:54.680Z,7.70
2023-05-19T03:52:45.580Z,7.60
2023-05-19T03:55:32.689Z,7.60
2023-05-19T03:57:59.500Z,7.50
2023-05-19T04:00:26.562Z,7.50
2023-05-19T04:02:53.600Z,7.50
2023-05-19T04:05:21.595Z,7.50
2023-05-19T04:07:48.518Z,7.50
2023-05-19T04:10:15.526Z,7.50
2023-05-19T04:12:42.588Z,7.50
2023-05-19T04:15:12.000Z,7.50
2023-05-19T04:17:39.214Z,7.50
2023-05-19T04:20:06.767Z,7.50
2023-05-19T04:22:33.657Z,7.50
2023-05-19T04:25:00.593Z,7.50
2023-05-19T04:27:29.934Z,7.50
2023-05-19T04:29:58.105Z,7.50
2023-05-19T04:32:25.709Z,7.50
2023-05-19T04:34:53.696Z,7.50
2023-05-19T04:37:25.996Z,7.50
2023-05-19T04:39:54.193Z,7.50
2023-05-19T04:42:26.298Z,7.50
2023-05-19T04:44:54.511Z,7.60
2023-05-19T04:47:28.392Z,7.60
2023-05-19T04:49:56.087Z,7.60
2023-05-19T04:52:23.896Z,7.60
2023-05-19T04:54:51.528Z,7.60
2023-05-19T04:57:18.493Z,7.70
2023-05-19T04:59:46.299Z,7.70
2023-05-19T05:02:13.395Z,7.70
2023-05-19T05:04:43.556Z,7.80
2023-05-19T05:07:10.845Z,7.80
2023-05-19T05:09:38.542Z,7.90
2023-05-19T05:12:07.854Z,7.90
2023-05-19T05:14:36.187Z,7.90
2023-05-19T05:17:03.982Z,7.90
2023-05-19T05:19:32.456Z,7.90
2023-05-19T05:22:00.414Z,8.00
2023-05-19T05:24:27.561Z,8.00
2023-05-19T05:26:59.115Z,8.10
2023-05-19T05:29:26.944Z,8.20
2023-05-19T05:31:54.283Z,8.30
2023-05-19T05:34:22.686Z,8.30
2023-05-19T05:36:50.084Z,8.40
2023-05-19T05:39:18.021Z,8.40
2023-05-19T05:41:46.718Z,8.40
2023-05-19T05:44:13.650Z,8.60
2023-05-19T05:46:43.061Z,8.60
2023-05-19T05:49:13.316Z,8.60
2023-05-19T05:51:54.366Z,8.70
2023-05-19T05:54:31.500Z,8.80
2023-05-19T05:56:58.608Z,8.80
2023-05-19T05:59:26.452Z,8.90
2023-05-19T06:01:54.992Z,8.90
2023-05-19T06:04:22.010Z,8.90
2023-05-19T06:06:48.882Z,9.00
2023-05-19T06:09:21.240Z,9.10
2023-05-19T06:11:48.209Z,9.20
2023-05-19T06:14:15.206Z,9.30
2023-05-19T06:17:02.426Z,9.30
2023-05-19T06:19:31.477Z,9.40
2023-05-19T06:21:58.473Z,9.50
2023-05-19T06:24:25.737Z,9.60
2023-05-19T06:26:52.716Z,9.70
2023-05-19T06:29:19.703Z,9.80
2023-05-19T06:31:48.298Z,9.90
2023-05-19T06:34:17.739Z,10.00
2023-05-19T06:36:46.825Z,10.10
2023-05-19T06:39:15.247Z,10.20
2023-05-19T06:41:42.238Z,10.30
2023-05-19T06:44:09.097Z,10.30
2023-05-19T06:46:36.054Z,10.40
2023-05-19T06:49:04.087Z,10.50
2023-05-19T06:51:35.467Z,10.60
2023-05-19T06:54:02.804Z,10.70
2023-05-19T06:56:29.734Z,10.80
2023-05-19T06:58:56.663Z,10.90
2023-05-19T07:01:30.359Z,11.10
2023-05-19T07:03:58.672Z,11.10
2023-05-19T07:06:26.009Z,11.30
2023-05-19T07:08:53.023Z,11.40
2023-05-19T07:11:20.158Z,11.50
2023-05-19T07:13:47.780Z,11.60
2023-05-19T07:16:20.509Z,11.80
2023-05-19T07:18:47.502Z,11.80
2023-05-19T07:21:14.452Z,12.00
2023-05-19T07:23:41.480Z,12.10
2023-05-19T07:26:10.472Z,12.20
2023-05-19T07:28:39.892Z,12.30
2023-05-19T07:31:08.890Z,12.40
2023-05-19T07:33:37.678Z,12.50
2023-05-19T07:36:04.755Z,12.60
2023-05-19T07:38:34.716Z,12.80
2023-05-19T07:41:03.146Z,12.90
2023-05-19T07:43:30.378Z,13.00
2023-05-19T07:45:57.503Z,13.10
2023-05-19T07:48:25.854Z,13.30
2023-05-19T07:50:53.187Z,13.40
2023-05-19T07:53:20.906Z,13.50
2023-05-19T07:55:47.858Z,13.60
2023-05-19T07:58:16.235Z,13.60
2023-05-19T08:00:43.423Z,13.80
2023-05-19T08:03:10.411Z,13.90
2023-05-19T08:05:37.969Z,14.00
2023-05-19T08:08:05.096Z,14.20
2023-05-19T08:10:32.170Z,14.30
2023-05-19T08:12:59.207Z,14.40
2023-05-19T08:15:26.372Z,14.50
2023-05-19T08:17:53.315Z,14.60
2023-05-19T08:20:23.307Z,14.70
2023-05-19T08:22:50.711Z,14.80
2023-05-19T08:25:19.705Z,14.90
2023-05-19T08:27:46.508Z,15.10
2023-05-19T08:30:13.417Z,15.30
2023-05-19T08:32:40.447Z,15.50
2023-05-19T08:35:07.902Z,15.70
2023-05-19T08:37:37.178Z,15.90
2023-05-19T08:40:08.814Z,16.20
2023-05-19T08:42:35.781Z,16.40
2023-05-19T08:45:03.221Z,16.40
2023-05-19T08:47:30.191Z,16.50
2023-05-19T08:50:05.356Z,16.50
2023-05-19T08:52:57.716Z,16.60
2023-05-19T08:55:53.285Z,16.70
2023-05-19T08:58:22.012Z,16.90
2023-05-19T09:00:49.390Z,16.90
2023-05-19T09:03:23.223Z,16.70
2023-05-19T09:05:51.182Z,16.70
2023-05-19T09:08:21.271Z,16.80
2023-05-19T09:10:47.985Z,16.80
2023-05-19T09:13:14.839Z,16.90
2023-05-19T09:15:44.401Z,17.30
2023-05-19T09:18:13.328Z,17.60
2023-05-19T09:20:41.622Z,17.80
2023-05-19T09:23:13.638Z,18.00
2023-05-19T09:25:53.701Z,18.10
2023-05-19T09:28:24.476Z,18.40
2023-05-19T09:31:02.422Z,18.60
2023-05-19T09:33:29.785Z,18.80
2023-05-19T09:35:57.447Z,19.00
2023-05-19T09:38:25.688Z,19.20
2023-05-19T09:40:57.377Z,19.50
2023-05-19T09:43:24.426Z,19.40
2023-05-19T09:46:13.795Z,19.50
2023-05-19T09:48:41.529Z,19.40
2023-05-19T09:51:10.776Z,19.30
2023-05-19T09:53:38.786Z,19.00
2023-05-19T09:56:08.589Z,18.90
2023-05-19T09:58:36.539Z,19.00
2023-05-19T10:01:04.638Z,19.20
2023-05-19T10:03:34.464Z,19.30
2023-05-19T10:06:02.067Z,19.40
2023-05-19T10:08:30.830Z,19.50
2023-05-19T10:10:59.395Z,19.50
2023-05-19T10:13:29.254Z,19.70
2023-05-19T10:15:59.407Z,19.90
2023-05-19T10:18:28.007Z,20.20
2023-05-19T10:20:56.048Z,20.40
2023-05-19T10:23:23.577Z,20.70
2023-05-19T10:25:54.662Z,21.00
2023-05-19T10:28:26.678Z,21.30
2023-05-19T10:30:57.006Z,21.50
2023-05-19T10:33:37.298Z,21.40
2023-05-19T10:36:25.786Z,21.50
2023-05-19T10:39:21.766Z,21.90
2023-05-19T10:42:14.613Z,22.10
2023-05-19T10:45:00.244Z,22.20
2023-05-19T10:47:27.319Z,22.00
2023-05-19T10:49:54.455Z,21.80
2023-05-19T10:52:23.349Z,21.60
2023-05-19T10:54:51.467Z,21.70
2023-05-19T10:57:20.059Z,21.60
2023-05-19T10:59:47.235Z,21.90
2023-05-19T11:02:43.445Z,22.20
2023-05-19T11:05:16.621Z,22.60
2023-05-19T11:08:06.177Z,22.80
2023-05-19T11:10:33.232Z,23.00
2023-05-19T11:13:00.759Z,23.20
2023-05-19T11:15:28.240Z,23.20
2023-05-19T11:17:55.662Z,23.00
2023-05-19T11:20:28.408Z,23.20
2023-05-19T11:23:08.415Z,23.20
2023-05-19T11:25:47.088Z,22.90
2023-05-19T11:28:25.805Z,23.30
2023-05-19T11:30:57.643Z,23.40
2023-05-19T11:33:29.077Z,23.40
2023-05-19T11:36:00.110Z,23.50
2023-05-19T11:38:28.607Z,23.10
2023-05-19T11:40:56.407Z,23.30
2023-05-19T11:43:26.742Z,23.40
2023-05-19T11:45:55.012Z,23.80
2023-05-19T11:48:22.601Z,24.00
2023-05-19T11:50:51.032Z,24.10
2023-05-19T11:53:19.592Z,24.10
2023-05-19T11:55:48.377Z,23.90
2023-05-19T11:58:15.904Z,23.90
2023-05-19T12:00:46.068Z,24.10
2023-05-19T12:03:13.561Z,24.00
2023-05-19T12:05:46.035Z,24.00
2023-05-19T12:08:14.063Z,23.90
2023-05-19T12:10:41.258Z,23.80
2023-05-19T12:13:09.590Z,23.70
2023-05-19T12:15:37.453Z,23.60
2023-05-19T12:18:04.618Z,23.60
2023-05-19T12:20:32.674Z,23.40
2023-05-19T12:23:01.148Z,23.30
2023-05-19T12:25:29.661Z,23.40
2023-05-19T12:28:02.958Z,23.10
2023-05-19T12:30:32.151Z,22.90
2023-05-19T12:32:59.823Z,22.70
2023-05-19T12:35:28.285Z,22.70
2023-05-19T12:37:55.346Z,22.80
2023-05-19T12:40:22.578Z,23.10
2023-05-19T12:42:53.335Z,23.20
2023-05-19T12:45:25.519Z,23.40
2023-05-19T12:47:52.920Z,23.40
2023-05-19T12:50:20.086Z,23.30
2023-05-19T12:52:52.114Z,23.30
2023-05-19T12:55:20.908Z,23.40
2023-05-19T12:57:54.802Z,23.40
2023-05-19T13:00:25.640Z,23.40
2023-05-19T13:03:00.271Z,23.50
2023-05-19T13:05:29.030Z,23.70
2023-05-19T13:08:05.543Z,23.60
2023-05-19T13:10:34.699Z,23.50
2023-05-19T13:13:02.157Z,23.40
2023-05-19T13:15:37.654Z,23.30
2023-05-19T13:18:06.808Z,23.50
2023-05-19T13:20:34.337Z,23.30
2023-05-19T13:23:01.984Z,23.30
2023-05-19T13:25:29.227Z,22.90
2023-05-19T13:27:56.842Z,22.60
2023-05-19T13:30:24.397Z,22.70
2023-05-19T13:32:52.706Z,22.40
2023-05-19T13:35:20.344Z,22.20
2023-05-19T13:37:47.217Z,22.20
2023-05-19T13:40:14.376Z,22.10
2023-05-19T13:42:41.725Z,22.00
2023-05-19T13:45:09.511Z,22.10
2023-05-19T13:47:36.572Z,22.30
2023-05-19T13:50:04.788Z,22.20
2023-05-19T13:52:33.063Z,22.40
2023-05-19T13:55:00.024Z,22.60
2023-05-19T13:57:26.964Z,22.60
2023-05-19T14:00:02.612Z,22.40
2023-05-19T14:02:40.742Z,22.60
2023-05-19T14:05:08.572Z,22.60
2023-05-19T14:07:35.788Z,22.70
2023-05-19T14:10:03.875Z,22.70
2023-05-19T14:12:41.357Z,22.80
2023-05-19T14:15:17.794Z,22.70
2023-05-19T14:17:44.858Z,22.70
2023-05-19T14:20:12.137Z,22.80
2023-05-19T14:22:38.950Z,22.50
2023-05-19T14:25:06.425Z,22.50
2023-05-19T14:27:33.321Z,22.50
2023-05-19T14:30:00.534Z,22.50
2023-05-19T14:32:30.085Z,22.60
2023-05-19T14:34:57.333Z,22.60
2023-05-19T14:37:26.525Z,22.70
2023-05-19T14:39:53.682Z,22.90
2023-05-19T14:42:20.522Z,22.70
2023-05-19T14:44:47.843Z,22.70
2023-05-19T14:47:15.010Z,22.90
2023-05-19T14:49:41.963Z,23.00
2023-05-19T14:52:08.918Z,23.20
2023-05-19T14:54:35.912Z,23.00
2023-05-19T14:57:03.079Z,23.00
2023-05-19T14:59:29.958Z,22.90
2023-05-19T15:01:56.830Z,22.70
2023-05-19T15:04:23.877Z,22.90
2023-05-19T15:07:05.930Z,22.80
2023-05-19T15:09:36.504Z,22.80
2023-05-19T15:12:03.722Z,22.90
2023-05-19T15:14:31.324Z,23.00
2023-05-19T15:16:59.241Z,23.10
2023-05-19T15:19:26.814Z,23.20
2023-05-19T15:21:54.226Z,23.10
2023-05-19T15:24:21.249Z,23.00
2023-05-19T15:26:48.267Z,23.30
2023-05-19T15:29:15.126Z,23.60
2023-05-19T15:31:42.141Z,23.20
2023-05-19T15:34:09.305Z,22.90
2023-05-19T15:36:36.303Z,22.80
2023-05-19T15:39:03.812Z,22.70
2023-05-19T15:41:30.804Z,22.60
2023-05-19T15:44:00.041Z,22.60
2023-05-19T15:46:27.149Z,22.60
2023-05-19T15:48:54.135Z,22.60
2023-05-19T15:51:21.085Z,22.40
2023-05-19T15:53:48.095Z,22.10
2023-05-19T15:56:14.998Z,21.90
2023-05-19T15:58:42.027Z,22.00
2023-05-19T16:01:09.180Z,22.20
2023-05-19T16:03:36.201Z,22.10
2023-05-19T16:06:03.590Z,22.30
2023-05-19T16:08:30.592Z,22.40
2023-05-19T16:10:57.349Z,22.10
2023-05-19T16:13:25.901Z,21.80
2023-05-19T16:15:52.837Z,21.70
2023-05-19T16:18:19.951Z,21.40
2023-05-19T16:20:48.974Z,21.40
2023-05-19T16:23:16.052Z,21.40
2023-05-19T16:25:49.054Z,21.50
2023-05-19T16:28:15.957Z,21.50
2023-05-19T16:30:43.264Z,21.80
2023-05-19T16:33:10.224Z,21.90
2023-05-19T16:35:37.251Z,21.90
2023-05-19T16:38:04.050Z,21.90
2023-05-19T16:40:31.171Z,21.60
2023-05-19T16:42:58.115Z,21.40
2023-05-19T16:45:26.373Z,21.30
2023-05-19T16:47:53.555Z,21.40
2023-05-19T16:50:20.518Z,21.50
2023-05-19T16:52:47.504Z,21.50
2023-05-19T16:55:19.560Z,21.50
2023-05-19T16:57:46.926Z,21.40
2023-05-19T17:00:14.596Z,21.40
2023-05-19T17:02:41.600Z,21.50
2023-05-19T17:05:08.809Z,21.60
2023-05-19T17:07:35.598Z,21.60
2023-05-19T17:10:02.437Z,21.40
2023-05-19T17:12:29.301Z,21.30
2023-05-19T17:14:56.920Z,21.40
2023-05-19T17:17:23.821Z,21.30
2023-05-19T17:19:50.766Z,21.30
2023-05-19T17:22:17.667Z,21.20
2023-05-19T17:24:44.627Z,21.20
2023-05-19T17:27:11.433Z,21.20
2023-05-19T17:29:38.275Z,21.00
2023-05-19T17:32:05.322Z,20.80
2023-05-19T17:34:32.429Z,20.60
2023-05-19T17:36:59.223Z,20.50
2023-05-19T17:39:27.492Z,20.40
2023-05-19T17:41:55.180Z,20.30
2023-05-19T17:44:22.032Z,20.20
2023-05-19T17:46:48.895Z,20.30
2023-05-19T17:49:15.985Z,20.30
2023-05-19T17:51:43.144Z,20.30
2023-05-19T17:54:10.326Z,20.30
2023-05-19T17:56:42.418Z,20.20
2023-05-19T17:59:09.255Z,20.10
2023-05-19T18:01:36.775Z,20.20
2023-05-19T18:04:04.086Z,20.10
2023-05-19T18:06:32.303Z,20.00
2023-05-19T18:09:01.388Z,20.00
2023-05-19T18:11:28.571Z,20.00
2023-05-19T18:13:55.585Z,19.90
2023-05-19T18:16:22.874Z,19.80
2023-05-19T18:18:50.651Z,19.80
2023-05-19T18:21:18.275Z,19.70
2023-05-19T18:23:48.602Z,19.70
2023-05-19T18:26:15.862Z,19.50
2023-05-19T18:28:43.535Z,19.50
2023-05-19T18:31:20.203Z,19.40
2023-05-19T18:33:47.360Z,19.20
2023-05-19T18:36:16.374Z,19.20
2023-05-19T18:38:47.917Z,19.20
2023-05-19T18:41:14.866Z,19.10
2023-05-19T18:43:41.711Z,19.00
2023-05-19T18:46:08.561Z,18.90
2023-05-19T18:48:36.625Z,18.90
2023-05-19T18:51:03.873Z,18.90
2023-05-19T18:53:34.961Z,18.70
2023-05-19T18:56:04.044Z,18.70
2023-05-19T18:58:31.082Z,18.60
2023-05-19T19:00:58.565Z,18.50
2023-05-19T19:03:26.528Z,18.40
2023-05-19T19:05:57.629Z,18.30
2023-05-19T19:08:24.930Z,18.20
2023-05-19T19:10:53.654Z,18.20
2023-05-19T19:13:21.295Z,18.10
2023-05-19T19:15:48.544Z,18.00
2023-05-19T19:18:16.167Z,18.00
2023-05-19T19:20:46.244Z,17.80
2023-05-19T19:23:13.229Z,17.70
2023-05-19T19:25:45.524Z,17.70
2023-05-19T19:28:12.581Z,17.50
2023-05-19T19:30:39.626Z,17.50
2023-05-19T19:33:07.050Z,17.50
2023-05-19T19:35:34.989Z,17.40
2023-05-19T19:38:03.871Z,17.40
2023-05-19T19:40:30.866Z,17.30
2023-05-19T19:42:57.868Z,17.20
2023-05-19T19:45:25.524Z,17.10
2023-05-19T19:47:52.530Z,17.10
2023-05-19T19:50:19.488Z,17.00
2023-05-19T19:52:46.446Z,17.00
2023-05-19T19:55:13.701Z,16.90
2023-05-19T19:57:41.209Z,16.80
2023-05-19T20:00:09.205Z,16.80
2023-05-19T20:02:45.534Z,16.70
2023-05-19T20:05:22.822Z,16.60
2023-05-19T20:07:49.717Z,16.50
2023-05-19T20:10:16.595Z,16.40
2023-05-19T20:12:43.686Z,16.40
2023-05-19T20:15:10.930Z,16.30
2023-05-19T20:17:37.886Z,16.30
2023-05-19T20:20:09.901Z,16.20
2023-05-19T20:22:36.969Z,16.10
2023-05-19T20:25:04.121Z,16.10
2023-05-19T20:27:31.024Z,16.00
2023-05-19T20:29:57.909Z,16.00
2023-05-19T20:32:24.723Z,15.90
2023-05-19T20:34:51.762Z,15.90
2023-05-19T20:37:18.672Z,15.80
2023-05-19T20:39:45.681Z,15.80
2023-05-19T20:42:12.718Z,15.70
2023-05-19T20:44:39.649Z,15.70
2023-05-19T20:47:08.228Z,15.70
2023-05-19T20:49:35.316Z,15.60
2023-05-19T20:52:02.389Z,15.50
2023-05-19T20:54:29.229Z,15.40
2023-05-19T20:56:56.138Z,15.40
2023-05-19T20:59:23.040Z,15.30
2023-05-19T21:01:49.866Z,15.30
2023-05-19T21:04:16.753Z,15.30
2023-05-19T21:06:43.697Z,15.20
2023-05-19T21:09:10.775Z,15.10
2023-05-19T21:11:37.709Z,15.10
2023-05-19T21:14:08.029Z,15.10
2023-05-19T21:16:38.615Z,15.00
2023-05-19T21:19:06.665Z,15.00
2023-05-19T21:21:33.943Z,14.90
2023-05-19T21:24:01.078Z,14.80
2023-05-19T21:26:27.942Z,14.80
2023-05-19T21:28:54.899Z,14.80
2023-05-19T21:31:24.576Z,14.70
2023-05-19T21:33:51.719Z,14.60
2023-05-19T21:36:18.561Z,14.50
2023-05-19T21:38:45.519Z,14.50
2023-05-19T21:41:12.447Z,14.50
2023-05-19T21:43:41.152Z,14.50
2023-05-19T21:46:08.541Z,14.50
2023-05-19T21:48:35.692Z,14.40
2023-05-19T21:51:02.939Z,14.40
2023-05-19T21:53:30.275Z,14.30
2023-05-19T21:55:57.354Z,14.20
2023-05-19T21:58:26.534Z,14.30
2023-05-19T22:00:57.574Z,14.20
2023-05-19T22:03:24.593Z,14.20
2023-05-19T22:05:53.176Z,14.20
2023-05-19T22:08:21.015Z,14.10
2023-05-19T22:10:51.719Z,14.00
2023-05-19T22:13:20.452Z,14.10
2023-05-19T22:15:47.761Z,14.00
2023-05-19T22:18:14.642Z,13.90
2023-05-19T22:20:44.874Z,13.90
2023-05-19T22:23:12.389Z,13.90
2023-05-19T22:25:39.265Z,13.80
2023-05-19T22:28:08.018Z,13.80
2023-05-19T22:30:42.226Z,13.80
2023-05-19T22:33:10.000Z,13.80
2023-05-19T22:35:37.053Z,13.70
2023-05-19T22:38:03.997Z,13.70
2023-05-19T22:40:31.026Z,13.70
2023-05-19T22:42:58.029Z,13.70
2023-05-19T22:45:25.104Z,13.60
2023-05-19T22:47:52.101Z,13.60
2023-05-19T22:50:19.079Z,13.60
2023-05-19T22:52:46.013Z,13.50
2023-05-19T22:55:13.080Z,13.60
2023-05-19T22:57:40.069Z,13.50
2023-05-19T23:00:08.294Z,13.40
2023-05-19T23:02:35.308Z,13.40
2023-05-19T23:05:02.456Z,13.40
2023-05-19T23:07:29.377Z,13.30
2023-05-19T23:09:56.478Z,13.30
2023-05-19T23:12:23.520Z,13.30
2023-05-19T23:14:50.946Z,13.30
2023-05-19T23:17:18.038Z,13.20
2023-05-19T23:19:44.955Z,13.20
2023-05-19T23:22:11.984Z,13.10
2023-05-19T23:24:38.846Z,13.20
2023-05-19T23:27:06.157Z,13.20
2023-05-19T23:29:33.143Z,13.10
2023-05-19T23:32:00.322Z,13.00
2023-05-19T23:34:27.201Z,13.00
2023-05-19T23:36:54.201Z,12.90
2023-05-19T23:39:22.139Z,12.80
2023-05-19T23:41:48.986Z,12.80
2023-05-19T23:44:15.798Z,12.80
2023-05-19T23:46:43.899Z,12.80
2023-05-19T23:49:10.831Z,12.70
2023-05-19T23:51:37.749Z,12.60
2023-05-19T23:54:04.716Z,12.60
2023-05-19T23:56:31.837Z,12.60
2023-05-19T23:58:58.891Z,12.70
